sensor_id;sensor_type;location;lat;lon;timestamp;P1;durP1;ratioP1;P2;durP2;ratioP2
65187;SDS011;51775;51.148;6.950;2023-06-22T00:02:09;2.10;;;1.60;;
65187;SDS011;51775;51.148;6.950;2023-06-22T00:04:35;2.67;;;1.70;;
65187;SDS011;51775;51.148;6.950;2023-06-22T00:07:00;2.35;;;1.70;;
65187;SDS011;51775;51.148;6.950;2023-06-22T00:09:25;2.63;;;1.70;;
65187;SDS011;51775;51.148;6.950;2023-06-22T00:11:50;2.55;;;1.80;;
65187;SDS011;51775;51.148;6.950;2023-06-22T00:14:16;2.40;;;1.70;;
65187;SDS011;51775;51.148;6.950;2023-06-22T00:16:41;2.53;;;1.73;;
65187;SDS011;51775;51.148;6.950;2023-06-22T00:19:06;2.42;;;1.70;;
65187;SDS011;51775;51.148;6.950;2023-06-22T00:21:31;2.60;;;1.80;;
65187;SDS011;51775;51.148;6.950;2023-06-22T00:23:57;2.10;;;1.50;;
65187;SDS011;51775;51.148;6.950;2023-06-22T00:26:22;2.38;;;1.70;;
65187;SDS011;51775;51.148;6.950;2023-06-22T00:28:48;2.53;;;1.70;;
65187;SDS011;51775;51.148;6.950;2023-06-22T00:31:13;2.80;;;1.75;;
65187;SDS011;51775;51.148;6.950;2023-06-22T00:33:38;2.35;;;1.70;;
65187;SDS011;51775;51.148;6.950;2023-06-22T00:36:04;2.45;;;1.60;;
65187;SDS011;51775;51.148;6.950;2023-06-22T00:38:29;2.38;;;1.67;;
65187;SDS011;51775;51.148;6.950;2023-06-22T00:40:55;2.42;;;1.63;;
65187;SDS011;51775;51.148;6.950;2023-06-22T00:43:20;2.42;;;1.80;;
65187;SDS011;51775;51.148;6.950;2023-06-22T00:45:45;2.30;;;1.70;;
65187;SDS011;51775;51.148;6.950;2023-06-22T00:48:11;2.30;;;1.70;;
65187;SDS011;51775;51.148;6.950;2023-06-22T00:50:37;2.28;;;1.73;;
65187;SDS011;51775;51.148;6.950;2023-06-22T00:53:03;2.70;;;1.70;;
65187;SDS011;51775;51.148;6.950;2023-06-22T00:55:30;2.58;;;1.60;;
65187;SDS011;51775;51.148;6.950;2023-06-22T00:57:56;2.25;;;1.60;;
65187;SDS011;51775;51.148;6.950;2023-06-22T01:00:22;2.05;;;1.40;;
65187;SDS011;51775;51.148;6.950;2023-06-22T01:02:48;2.30;;;1.63;;
65187;SDS011;51775;51.148;6.950;2023-06-22T01:05:14;2.47;;;1.70;;
65187;SDS011;51775;51.148;6.950;2023-06-22T01:13:01;2.33;;;1.60;;
65187;SDS011;51775;51.148;6.950;2023-06-22T01:15:33;2.13;;;1.60;;
65187;SDS011;51775;51.148;6.950;2023-06-22T01:18:08;2.50;;;1.77;;
65187;SDS011;51775;51.148;6.950;2023-06-22T01:20:34;2.00;;;1.50;;
65187;SDS011;51775;51.148;6.950;2023-06-22T01:25:51;2.67;;;1.70;;
65187;SDS011;51775;51.148;6.950;2023-06-22T01:28:32;2.40;;;1.60;;
65187;SDS011;51775;51.148;6.950;2023-06-22T01:31:07;2.35;;;1.65;;
65187;SDS011;51775;51.148;6.950;2023-06-22T01:33:34;2.30;;;1.65;;
65187;SDS011;51775;51.148;6.950;2023-06-22T01:36:02;2.53;;;1.70;;
65187;SDS011;51775;51.148;6.950;2023-06-22T01:38:31;2.17;;;1.60;;
65187;SDS011;51775;51.148;6.950;2023-06-22T01:40:58;2.10;;;1.50;;
65187;SDS011;51775;51.148;6.950;2023-06-22T01:43:25;2.25;;;1.60;;
65187;SDS011;51775;51.148;6.950;2023-06-22T01:45:51;2.80;;;1.58;;
65187;SDS011;51775;51.148;6.950;2023-06-22T01:48:18;2.30;;;1.52;;
65187;SDS011;51775;51.148;6.950;2023-06-22T01:50:44;2.55;;;1.80;;
65187;SDS011;51775;51.148;6.950;2023-06-22T01:53:10;2.20;;;1.50;;
65187;SDS011;51775;51.148;6.950;2023-06-22T01:55:35;2.30;;;1.67;;
65187;SDS011;51775;51.148;6.950;2023-06-22T01:58:00;2.50;;;1.70;;
65187;SDS011;51775;51.148;6.950;2023-06-22T02:00:26;2.35;;;1.70;;
65187;SDS011;51775;51.148;6.950;2023-06-22T02:02:57;2.60;;;1.70;;
65187;SDS011;51775;51.148;6.950;2023-06-22T02:05:26;2.15;;;1.50;;
65187;SDS011;51775;51.148;6.950;2023-06-22T02:10:35;2.40;;;1.70;;
65187;SDS011;51775;51.148;6.950;2023-06-22T02:13:03;2.38;;;1.60;;
65187;SDS011;51775;51.148;6.950;2023-06-22T02:15:31;2.30;;;1.65;;
65187;SDS011;51775;51.148;6.950;2023-06-22T02:17:56;2.53;;;1.65;;
65187;SDS011;51775;51.148;6.950;2023-06-22T02:20:21;2.13;;;1.58;;
65187;SDS011;51775;51.148;6.950;2023-06-22T02:22:49;2.30;;;1.60;;
65187;SDS011;51775;51.148;6.950;2023-06-22T02:25:14;2.50;;;1.80;;
65187;SDS011;51775;51.148;6.950;2023-06-22T02:27:40;2.08;;;1.48;;
65187;SDS011;51775;51.148;6.950;2023-06-22T02:30:06;2.20;;;1.50;;
65187;SDS011;51775;51.148;6.950;2023-06-22T02:32:34;2.53;;;1.50;;
65187;SDS011;51775;51.148;6.950;2023-06-22T02:35:01;2.55;;;1.70;;
65187;SDS011;51775;51.148;6.950;2023-06-22T02:37:27;4.50;;;1.70;;
65187;SDS011;51775;51.148;6.950;2023-06-22T02:39:52;2.40;;;1.60;;
65187;SDS011;51775;51.148;6.950;2023-06-22T02:42:17;2.25;;;1.70;;
65187;SDS011;51775;51.148;6.950;2023-06-22T02:44:42;2.33;;;1.70;;
65187;SDS011;51775;51.148;6.950;2023-06-22T02:47:08;2.40;;;1.70;;
65187;SDS011;51775;51.148;6.950;2023-06-22T02:49:33;1.92;;;1.58;;
65187;SDS011;51775;51.148;6.950;2023-06-22T02:51:58;2.42;;;1.58;;
65187;SDS011;51775;51.148;6.950;2023-06-22T02:54:24;2.42;;;1.63;;
65187;SDS011;51775;51.148;6.950;2023-06-22T02:56:49;2.60;;;1.75;;
65187;SDS011;51775;51.148;6.950;2023-06-22T02:59:14;2.30;;;1.70;;
65187;SDS011;51775;51.148;6.950;2023-06-22T03:01:40;2.45;;;1.70;;
65187;SDS011;51775;51.148;6.950;2023-06-22T03:04:06;2.30;;;1.52;;
65187;SDS011;51775;51.148;6.950;2023-06-22T03:06:31;2.53;;;1.58;;
65187;SDS011;51775;51.148;6.950;2023-06-22T03:09:01;2.28;;;1.58;;
65187;SDS011;51775;51.148;6.950;2023-06-22T03:11:28;2.50;;;1.80;;
65187;SDS011;51775;51.148;6.950;2023-06-22T03:13:53;3.28;;;1.65;;
65187;SDS011;51775;51.148;6.950;2023-06-22T03:16:19;2.20;;;1.50;;
65187;SDS011;51775;51.148;6.950;2023-06-22T03:18:44;2.70;;;1.88;;
65187;SDS011;51775;51.148;6.950;2023-06-22T03:21:10;2.40;;;1.80;;
65187;SDS011;51775;51.148;6.950;2023-06-22T03:23:35;2.55;;;1.52;;
65187;SDS011;51775;51.148;6.950;2023-06-22T03:26:01;2.08;;;1.50;;
65187;SDS011;51775;51.148;6.950;2023-06-22T03:28:27;2.72;;;1.65;;
65187;SDS011;51775;51.148;6.950;2023-06-22T03:30:52;2.20;;;1.63;;
65187;SDS011;51775;51.148;6.950;2023-06-22T03:33:18;2.45;;;1.70;;
65187;SDS011;51775;51.148;6.950;2023-06-22T03:35:43;2.30;;;1.60;;
65187;SDS011;51775;51.148;6.950;2023-06-22T03:38:08;2.22;;;1.55;;
65187;SDS011;51775;51.148;6.950;2023-06-22T03:40:34;2.47;;;1.58;;
65187;SDS011;51775;51.148;6.950;2023-06-22T03:42:59;2.35;;;1.60;;
65187;SDS011;51775;51.148;6.950;2023-06-22T03:45:24;2.38;;;1.60;;
65187;SDS011;51775;51.148;6.950;2023-06-22T03:47:49;2.20;;;1.60;;
65187;SDS011;51775;51.148;6.950;2023-06-22T03:50:15;2.35;;;1.67;;
65187;SDS011;51775;51.148;6.950;2023-06-22T03:52:40;2.20;;;1.60;;
65187;SDS011;51775;51.148;6.950;2023-06-22T03:55:06;2.42;;;1.80;;
65187;SDS011;51775;51.148;6.950;2023-06-22T03:57:32;2.10;;;1.50;;
65187;SDS011;51775;51.148;6.950;2023-06-22T03:59:57;2.20;;;1.60;;
65187;SDS011;51775;51.148;6.950;2023-06-22T04:02:23;2.20;;;1.50;;
65187;SDS011;51775;51.148;6.950;2023-06-22T04:04:49;2.33;;;1.80;;
65187;SDS011;51775;51.148;6.950;2023-06-22T04:07:14;2.30;;;1.63;;
65187;SDS011;51775;51.148;6.950;2023-06-22T04:09:39;2.30;;;1.60;;
65187;SDS011;51775;51.148;6.950;2023-06-22T04:12:05;2.58;;;1.73;;
65187;SDS011;51775;51.148;6.950;2023-06-22T04:14:30;2.33;;;1.60;;
65187;SDS011;51775;51.148;6.950;2023-06-22T04:16:56;1.98;;;1.50;;
65187;SDS011;51775;51.148;6.950;2023-06-22T04:19:22;2.05;;;1.52;;
65187;SDS011;51775;51.148;6.950;2023-06-22T04:21:47;2.40;;;1.60;;
65187;SDS011;51775;51.148;6.950;2023-06-22T04:24:12;2.00;;;1.50;;
65187;SDS011;51775;51.148;6.950;2023-06-22T04:26:38;2.20;;;1.52;;
65187;SDS011;51775;51.148;6.950;2023-06-22T04:29:03;1.80;;;1.30;;
65187;SDS011;51775;51.148;6.950;2023-06-22T04:31:29;1.90;;;1.48;;
65187;SDS011;51775;51.148;6.950;2023-06-22T04:33:54;2.40;;;1.80;;
65187;SDS011;51775;51.148;6.950;2023-06-22T04:36:19;2.30;;;1.67;;
65187;SDS011;51775;51.148;6.950;2023-06-22T04:38:45;2.40;;;1.67;;
65187;SDS011;51775;51.148;6.950;2023-06-22T04:41:10;2.20;;;1.60;;
65187;SDS011;51775;51.148;6.950;2023-06-22T04:43:35;2.22;;;1.63;;
65187;SDS011;51775;51.148;6.950;2023-06-22T04:46:00;2.80;;;1.70;;
65187;SDS011;51775;51.148;6.950;2023-06-22T04:48:26;2.55;;;1.70;;
65187;SDS011;51775;51.148;6.950;2023-06-22T04:50:51;2.25;;;1.70;;
65187;SDS011;51775;51.148;6.950;2023-06-22T04:53:16;2.60;;;1.60;;
65187;SDS011;51775;51.148;6.950;2023-06-22T04:55:41;2.43;;;1.70;;
65187;SDS011;51775;51.148;6.950;2023-06-22T04:58:07;2.28;;;1.60;;
65187;SDS011;51775;51.148;6.950;2023-06-22T05:00:32;2.45;;;1.70;;
65187;SDS011;51775;51.148;6.950;2023-06-22T05:02:58;2.15;;;1.58;;
65187;SDS011;51775;51.148;6.950;2023-06-22T05:05:23;2.40;;;1.70;;
65187;SDS011;51775;51.148;6.950;2023-06-22T05:07:50;3.13;;;1.70;;
65187;SDS011;51775;51.148;6.950;2023-06-22T05:10:16;2.72;;;1.67;;
65187;SDS011;51775;51.148;6.950;2023-06-22T05:12:41;2.40;;;1.63;;
65187;SDS011;51775;51.148;6.950;2023-06-22T05:15:07;2.30;;;1.73;;
65187;SDS011;51775;51.148;6.950;2023-06-22T05:17:33;3.22;;;1.80;;
65187;SDS011;51775;51.148;6.950;2023-06-22T05:19:59;2.42;;;1.80;;
65187;SDS011;51775;51.148;6.950;2023-06-22T05:22:24;2.58;;;1.73;;
65187;SDS011;51775;51.148;6.950;2023-06-22T05:24:50;2.58;;;1.80;;
65187;SDS011;51775;51.148;6.950;2023-06-22T05:27:15;2.33;;;1.73;;
65187;SDS011;51775;51.148;6.950;2023-06-22T05:29:40;2.75;;;1.90;;
65187;SDS011;51775;51.148;6.950;2023-06-22T05:32:06;2.78;;;1.90;;
65187;SDS011;51775;51.148;6.950;2023-06-22T05:34:32;2.72;;;1.90;;
65187;SDS011;51775;51.148;6.950;2023-06-22T05:36:57;3.25;;;2.10;;
65187;SDS011;51775;51.148;6.950;2023-06-22T05:39:22;2.40;;;1.80;;
65187;SDS011;51775;51.148;6.950;2023-06-22T05:41:48;2.88;;;2.10;;
65187;SDS011;51775;51.148;6.950;2023-06-22T05:44:13;2.83;;;2.10;;
65187;SDS011;51775;51.148;6.950;2023-06-22T05:46:42;2.97;;;1.90;;
65187;SDS011;51775;51.148;6.950;2023-06-22T05:49:08;2.80;;;2.10;;
65187;SDS011;51775;51.148;6.950;2023-06-22T05:51:33;2.70;;;1.95;;
65187;SDS011;51775;51.148;6.950;2023-06-22T05:53:59;3.00;;;2.10;;
65187;SDS011;51775;51.148;6.950;2023-06-22T05:56:24;2.83;;;2.20;;
65187;SDS011;51775;51.148;6.950;2023-06-22T05:58:49;3.53;;;2.22;;
65187;SDS011;51775;51.148;6.950;2023-06-22T06:01:15;2.83;;;2.03;;
65187;SDS011;51775;51.148;6.950;2023-06-22T06:03:40;4.32;;;2.10;;
65187;SDS011;51775;51.148;6.950;2023-06-22T06:06:05;4.57;;;2.08;;
65187;SDS011;51775;51.148;6.950;2023-06-22T06:08:30;3.20;;;1.90;;
65187;SDS011;51775;51.148;6.950;2023-06-22T06:10:56;3.55;;;2.05;;
65187;SDS011;51775;51.148;6.950;2023-06-22T06:13:21;2.85;;;2.10;;
65187;SDS011;51775;51.148;6.950;2023-06-22T06:15:46;5.45;;;2.40;;
65187;SDS011;51775;51.148;6.950;2023-06-22T06:18:12;3.13;;;2.28;;
65187;SDS011;51775;51.148;6.950;2023-06-22T06:20:37;4.53;;;2.50;;
65187;SDS011;51775;51.148;6.950;2023-06-22T06:23:02;4.65;;;2.30;;
65187;SDS011;51775;51.148;6.950;2023-06-22T06:25:28;3.90;;;2.60;;
65187;SDS011;51775;51.148;6.950;2023-06-22T06:27:53;4.47;;;2.83;;
65187;SDS011;51775;51.148;6.950;2023-06-22T06:30:19;5.70;;;2.88;;
65187;SDS011;51775;51.148;6.950;2023-06-22T06:32:44;6.38;;;3.25;;
65187;SDS011;51775;51.148;6.950;2023-06-22T06:35:11;7.88;;;3.90;;
65187;SDS011;51775;51.148;6.950;2023-06-22T06:37:39;6.82;;;4.35;;
65187;SDS011;51775;51.148;6.950;2023-06-22T06:40:06;7.55;;;4.10;;
65187;SDS011;51775;51.148;6.950;2023-06-22T06:42:32;6.15;;;4.07;;
65187;SDS011;51775;51.148;6.950;2023-06-22T06:44:57;6.43;;;4.50;;
65187;SDS011;51775;51.148;6.950;2023-06-22T06:47:23;8.35;;;4.65;;
65187;SDS011;51775;51.148;6.950;2023-06-22T06:49:48;6.63;;;4.30;;
65187;SDS011;51775;51.148;6.950;2023-06-22T06:52:13;7.28;;;4.57;;
65187;SDS011;51775;51.148;6.950;2023-06-22T06:54:39;7.25;;;4.53;;
65187;SDS011;51775;51.148;6.950;2023-06-22T06:57:04;7.65;;;4.43;;
65187;SDS011;51775;51.148;6.950;2023-06-22T06:59:29;6.55;;;4.45;;
65187;SDS011;51775;51.148;6.950;2023-06-22T07:01:55;6.10;;;4.28;;
65187;SDS011;51775;51.148;6.950;2023-06-22T07:04:20;6.22;;;4.60;;
65187;SDS011;51775;51.148;6.950;2023-06-22T07:06:45;7.00;;;4.20;;
65187;SDS011;51775;51.148;6.950;2023-06-22T07:09:10;5.45;;;4.18;;
65187;SDS011;51775;51.148;6.950;2023-06-22T07:11:36;6.53;;;4.32;;
65187;SDS011;51775;51.148;6.950;2023-06-22T07:14:01;6.40;;;4.45;;
65187;SDS011;51775;51.148;6.950;2023-06-22T07:16:26;5.32;;;4.30;;
65187;SDS011;51775;51.148;6.950;2023-06-22T07:18:51;5.38;;;4.00;;
65187;SDS011;51775;51.148;6.950;2023-06-22T07:21:17;6.00;;;4.18;;
65187;SDS011;51775;51.148;6.950;2023-06-22T07:23:42;5.85;;;4.07;;
65187;SDS011;51775;51.148;6.950;2023-06-22T07:26:07;6.80;;;4.22;;
65187;SDS011;51775;51.148;6.950;2023-06-22T07:28:33;5.20;;;3.80;;
65187;SDS011;51775;51.148;6.950;2023-06-22T07:30:58;6.68;;;4.10;;
65187;SDS011;51775;51.148;6.950;2023-06-22T07:33:23;5.85;;;3.95;;
65187;SDS011;51775;51.148;6.950;2023-06-22T07:35:48;7.28;;;4.10;;
65187;SDS011;51775;51.148;6.950;2023-06-22T07:38:14;6.72;;;4.18;;
65187;SDS011;51775;51.148;6.950;2023-06-22T07:40:39;5.25;;;4.03;;
65187;SDS011;51775;51.148;6.950;2023-06-22T07:43:05;5.22;;;3.83;;
65187;SDS011;51775;51.148;6.950;2023-06-22T07:45:30;5.45;;;4.18;;
65187;SDS011;51775;51.148;6.950;2023-06-22T07:47:55;4.70;;;3.80;;
65187;SDS011;51775;51.148;6.950;2023-06-22T07:50:20;6.63;;;4.10;;
65187;SDS011;51775;51.148;6.950;2023-06-22T07:52:46;6.25;;;3.97;;
65187;SDS011;51775;51.148;6.950;2023-06-22T07:55:11;5.57;;;4.10;;
65187;SDS011;51775;51.148;6.950;2023-06-22T07:57:36;5.90;;;3.85;;
65187;SDS011;51775;51.148;6.950;2023-06-22T08:00:03;5.47;;;3.65;;
65187;SDS011;51775;51.148;6.950;2023-06-22T08:02:30;6.53;;;3.78;;
65187;SDS011;51775;51.148;6.950;2023-06-22T08:04:55;5.10;;;3.78;;
65187;SDS011;51775;51.148;6.950;2023-06-22T08:07:20;4.75;;;3.85;;
65187;SDS011;51775;51.148;6.950;2023-06-22T08:09:46;6.10;;;3.75;;
65187;SDS011;51775;51.148;6.950;2023-06-22T08:12:13;5.07;;;3.58;;
65187;SDS011;51775;51.148;6.950;2023-06-22T08:14:38;4.55;;;3.75;;
65187;SDS011;51775;51.148;6.950;2023-06-22T08:17:04;4.45;;;3.70;;
65187;SDS011;51775;51.148;6.950;2023-06-22T08:19:29;4.32;;;3.50;;
65187;SDS011;51775;51.148;6.950;2023-06-22T08:21:54;4.78;;;3.65;;
65187;SDS011;51775;51.148;6.950;2023-06-22T08:24:20;4.28;;;3.70;;
65187;SDS011;51775;51.148;6.950;2023-06-22T08:26:45;4.78;;;3.83;;
65187;SDS011;51775;51.148;6.950;2023-06-22T08:29:10;5.28;;;3.60;;
65187;SDS011;51775;51.148;6.950;2023-06-22T08:31:36;4.90;;;3.90;;
65187;SDS011;51775;51.148;6.950;2023-06-22T08:34:01;4.35;;;3.28;;
65187;SDS011;51775;51.148;6.950;2023-06-22T08:36:26;4.10;;;3.25;;
65187;SDS011;51775;51.148;6.950;2023-06-22T08:38:51;4.20;;;3.20;;
65187;SDS011;51775;51.148;6.950;2023-06-22T08:41:17;5.38;;;3.53;;
65187;SDS011;51775;51.148;6.950;2023-06-22T08:43:43;4.32;;;3.00;;
65187;SDS011;51775;51.148;6.950;2023-06-22T08:46:08;5.07;;;3.50;;
65187;SDS011;51775;51.148;6.950;2023-06-22T08:48:34;4.45;;;3.35;;
65187;SDS011;51775;51.148;6.950;2023-06-22T08:50:59;4.10;;;3.20;;
65187;SDS011;51775;51.148;6.950;2023-06-22T08:53:24;4.25;;;3.20;;
65187;SDS011;51775;51.148;6.950;2023-06-22T08:55:49;4.50;;;3.25;;
65187;SDS011;51775;51.148;6.950;2023-06-22T08:58:15;3.83;;;3.08;;
65187;SDS011;51775;51.148;6.950;2023-06-22T09:00:40;4.37;;;3.10;;
65187;SDS011;51775;51.148;6.950;2023-06-22T09:03:05;4.45;;;3.40;;
65187;SDS011;51775;51.148;6.950;2023-06-22T09:05:30;4.13;;;3.25;;
65187;SDS011;51775;51.148;6.950;2023-06-22T09:07:56;4.30;;;3.38;;
65187;SDS011;51775;51.148;6.950;2023-06-22T09:10:21;4.68;;;3.40;;
65187;SDS011;51775;51.148;6.950;2023-06-22T09:12:47;4.22;;;3.13;;
65187;SDS011;51775;51.148;6.950;2023-06-22T09:15:12;4.72;;;3.00;;
65187;SDS011;51775;51.148;6.950;2023-06-22T09:17:37;3.97;;;3.10;;
65187;SDS011;51775;51.148;6.950;2023-06-22T09:20:03;3.58;;;2.97;;
65187;SDS011;51775;51.148;6.950;2023-06-22T09:22:28;4.70;;;3.55;;
65187;SDS011;51775;51.148;6.950;2023-06-22T09:24:54;4.20;;;3.40;;
65187;SDS011;51775;51.148;6.950;2023-06-22T09:27:20;5.13;;;3.40;;
65187;SDS011;51775;51.148;6.950;2023-06-22T09:29:45;4.45;;;3.03;;
65187;SDS011;51775;51.148;6.950;2023-06-22T09:32:11;4.03;;;3.05;;
65187;SDS011;51775;51.148;6.950;2023-06-22T09:34:36;4.03;;;3.00;;
65187;SDS011;51775;51.148;6.950;2023-06-22T09:37:01;4.30;;;3.33;;
65187;SDS011;51775;51.148;6.950;2023-06-22T09:39:26;3.88;;;3.10;;
65187;SDS011;51775;51.148;6.950;2023-06-22T09:41:52;3.58;;;2.97;;
65187;SDS011;51775;51.148;6.950;2023-06-22T09:44:17;4.13;;;3.25;;
65187;SDS011;51775;51.148;6.950;2023-06-22T09:46:42;4.18;;;2.90;;
65187;SDS011;51775;51.148;6.950;2023-06-22T09:49:07;3.70;;;3.00;;
65187;SDS011;51775;51.148;6.950;2023-06-22T09:51:33;4.27;;;3.30;;
65187;SDS011;51775;51.148;6.950;2023-06-22T09:53:58;3.58;;;3.10;;
65187;SDS011;51775;51.148;6.950;2023-06-22T09:56:23;3.70;;;3.10;;
65187;SDS011;51775;51.148;6.950;2023-06-22T09:58:48;4.35;;;3.30;;
65187;SDS011;51775;51.148;6.950;2023-06-22T10:01:14;6.45;;;3.22;;
65187;SDS011;51775;51.148;6.950;2023-06-22T10:03:39;3.65;;;3.00;;
65187;SDS011;51775;51.148;6.950;2023-06-22T10:06:05;3.85;;;2.95;;
65187;SDS011;51775;51.148;6.950;2023-06-22T10:08:30;3.33;;;2.75;;
65187;SDS011;51775;51.148;6.950;2023-06-22T10:10:55;4.20;;;3.30;;
65187;SDS011;51775;51.148;6.950;2023-06-22T10:13:20;3.97;;;3.10;;
65187;SDS011;51775;51.148;6.950;2023-06-22T10:15:46;3.65;;;2.95;;
65187;SDS011;51775;51.148;6.950;2023-06-22T10:18:11;4.50;;;3.00;;
65187;SDS011;51775;51.148;6.950;2023-06-22T10:20:36;3.55;;;2.88;;
65187;SDS011;51775;51.148;6.950;2023-06-22T10:23:02;4.03;;;3.03;;
65187;SDS011;51775;51.148;6.950;2023-06-22T10:25:27;4.07;;;3.00;;
65187;SDS011;51775;51.148;6.950;2023-06-22T10:27:52;3.72;;;3.15;;
65187;SDS011;51775;51.148;6.950;2023-06-22T10:30:17;3.90;;;3.00;;
65187;SDS011;51775;51.148;6.950;2023-06-22T10:32:43;4.18;;;3.10;;
65187;SDS011;51775;51.148;6.950;2023-06-22T10:35:08;4.10;;;2.90;;
65187;SDS011;51775;51.148;6.950;2023-06-22T10:37:35;3.85;;;2.95;;
65187;SDS011;51775;51.148;6.950;2023-06-22T10:40:00;3.90;;;3.00;;
65187;SDS011;51775;51.148;6.950;2023-06-22T10:42:25;3.60;;;2.75;;
65187;SDS011;51775;51.148;6.950;2023-06-22T10:44:51;3.70;;;3.05;;
65187;SDS011;51775;51.148;6.950;2023-06-22T10:47:16;4.10;;;3.07;;
65187;SDS011;51775;51.148;6.950;2023-06-22T10:49:41;3.72;;;3.20;;
65187;SDS011;51775;51.148;6.950;2023-06-22T10:52:07;4.20;;;3.30;;
65187;SDS011;51775;51.148;6.950;2023-06-22T10:54:33;4.22;;;3.13;;
65187;SDS011;51775;51.148;6.950;2023-06-22T10:57:00;3.90;;;3.13;;
65187;SDS011;51775;51.148;6.950;2023-06-22T10:59:26;4.10;;;3.25;;
65187;SDS011;51775;51.148;6.950;2023-06-22T11:01:51;5.13;;;3.53;;
65187;SDS011;51775;51.148;6.950;2023-06-22T11:04:17;4.28;;;3.58;;
65187;SDS011;51775;51.148;6.950;2023-06-22T11:06:42;4.60;;;3.65;;
65187;SDS011;51775;51.148;6.950;2023-06-22T11:09:07;4.10;;;3.20;;
65187;SDS011;51775;51.148;6.950;2023-06-22T11:11:32;4.10;;;3.30;;
65187;SDS011;51775;51.148;6.950;2023-06-22T11:13:58;4.07;;;3.42;;
65187;SDS011;51775;51.148;6.950;2023-06-22T11:16:23;4.65;;;3.20;;
65187;SDS011;51775;51.148;6.950;2023-06-22T11:18:48;5.70;;;3.50;;
65187;SDS011;51775;51.148;6.950;2023-06-22T11:21:14;4.25;;;3.45;;
65187;SDS011;51775;51.148;6.950;2023-06-22T11:23:39;3.88;;;3.40;;
65187;SDS011;51775;51.148;6.950;2023-06-22T11:26:04;4.10;;;3.40;;
65187;SDS011;51775;51.148;6.950;2023-06-22T11:28:29;4.20;;;3.40;;
65187;SDS011;51775;51.148;6.950;2023-06-22T11:30:55;5.60;;;3.83;;
65187;SDS011;51775;51.148;6.950;2023-06-22T11:33:20;4.85;;;3.63;;
65187;SDS011;51775;51.148;6.950;2023-06-22T11:35:45;4.72;;;3.80;;
65187;SDS011;51775;51.148;6.950;2023-06-22T11:38:10;4.28;;;3.40;;
65187;SDS011;51775;51.148;6.950;2023-06-22T11:40:36;4.20;;;3.40;;
65187;SDS011;51775;51.148;6.950;2023-06-22T11:43:01;4.68;;;3.67;;
65187;SDS011;51775;51.148;6.950;2023-06-22T11:45:26;4.53;;;3.75;;
65187;SDS011;51775;51.148;6.950;2023-06-22T11:47:52;4.30;;;3.80;;
65187;SDS011;51775;51.148;6.950;2023-06-22T11:50:17;4.65;;;3.70;;
65187;SDS011;51775;51.148;6.950;2023-06-22T11:52:42;4.88;;;3.85;;
65187;SDS011;51775;51.148;6.950;2023-06-22T11:55:07;4.53;;;3.67;;
65187;SDS011;51775;51.148;6.950;2023-06-22T11:57:33;4.50;;;3.80;;
65187;SDS011;51775;51.148;6.950;2023-06-22T12:00:00;4.38;;;3.40;;
65187;SDS011;51775;51.148;6.950;2023-06-22T12:02:25;5.25;;;3.63;;
65187;SDS011;51775;51.148;6.950;2023-06-22T12:04:51;3.92;;;3.33;;
65187;SDS011;51775;51.148;6.950;2023-06-22T12:07:16;4.25;;;3.35;;
65187;SDS011;51775;51.148;6.950;2023-06-22T12:09:41;4.13;;;3.30;;
65187;SDS011;51775;51.148;6.950;2023-06-22T12:12:06;5.03;;;3.53;;
65187;SDS011;51775;51.148;6.950;2023-06-22T12:14:32;4.50;;;3.67;;
65187;SDS011;51775;51.148;6.950;2023-06-22T12:16:57;4.13;;;3.58;;
65187;SDS011;51775;51.148;6.950;2023-06-22T12:19:23;4.05;;;3.40;;
65187;SDS011;51775;51.148;6.950;2023-06-22T12:21:48;4.10;;;3.42;;
65187;SDS011;51775;51.148;6.950;2023-06-22T12:24:13;4.85;;;3.70;;
65187;SDS011;51775;51.148;6.950;2023-06-22T12:26:38;4.10;;;3.40;;
65187;SDS011;51775;51.148;6.950;2023-06-22T12:29:04;4.30;;;3.60;;
65187;SDS011;51775;51.148;6.950;2023-06-22T12:31:29;4.22;;;3.30;;
65187;SDS011;51775;51.148;6.950;2023-06-22T12:33:54;4.20;;;3.40;;
65187;SDS011;51775;51.148;6.950;2023-06-22T12:36:19;4.28;;;3.55;;
65187;SDS011;51775;51.148;6.950;2023-06-22T12:38:45;4.05;;;3.53;;
65187;SDS011;51775;51.148;6.950;2023-06-22T12:41:10;4.67;;;3.73;;
65187;SDS011;51775;51.148;6.950;2023-06-22T12:43:35;4.40;;;3.75;;
65187;SDS011;51775;51.148;6.950;2023-06-22T12:46:00;4.37;;;3.47;;
65187;SDS011;51775;51.148;6.950;2023-06-22T12:48:26;4.30;;;3.53;;
65187;SDS011;51775;51.148;6.950;2023-06-22T12:50:52;4.43;;;3.78;;
65187;SDS011;51775;51.148;6.950;2023-06-22T12:53:17;4.20;;;3.60;;
65187;SDS011;51775;51.148;6.950;2023-06-22T12:55:42;4.47;;;3.60;;
65187;SDS011;51775;51.148;6.950;2023-06-22T12:58:08;4.35;;;3.65;;
65187;SDS011;51775;51.148;6.950;2023-06-22T13:00:33;4.23;;;3.43;;
65187;SDS011;51775;51.148;6.950;2023-06-22T13:02:58;4.38;;;3.78;;
65187;SDS011;51775;51.148;6.950;2023-06-22T13:05:23;4.40;;;3.67;;
65187;SDS011;51775;51.148;6.950;2023-06-22T13:07:49;4.15;;;3.75;;
65187;SDS011;51775;51.148;6.950;2023-06-22T13:10:14;4.53;;;3.57;;
65187;SDS011;51775;51.148;6.950;2023-06-22T13:12:39;4.90;;;3.83;;
65187;SDS011;51775;51.148;6.950;2023-06-22T13:15:05;4.30;;;3.72;;
65187;SDS011;51775;51.148;6.950;2023-06-22T13:17:31;5.22;;;3.63;;
65187;SDS011;51775;51.148;6.950;2023-06-22T13:19:56;4.63;;;3.88;;
65187;SDS011;51775;51.148;6.950;2023-06-22T13:22:31;4.55;;;3.92;;
65187;SDS011;51775;51.148;6.950;2023-06-22T13:24:58;4.00;;;3.40;;
65187;SDS011;51775;51.148;6.950;2023-06-22T13:27:24;4.38;;;3.60;;
65187;SDS011;51775;51.148;6.950;2023-06-22T13:29:49;4.10;;;3.70;;
65187;SDS011;51775;51.148;6.950;2023-06-22T13:32:15;4.20;;;3.60;;
65187;SDS011;51775;51.148;6.950;2023-06-22T13:34:42;4.82;;;3.90;;
65187;SDS011;51775;51.148;6.950;2023-06-22T13:37:08;4.38;;;3.60;;
65187;SDS011;51775;51.148;6.950;2023-06-22T13:39:33;4.95;;;3.90;;
65187;SDS011;51775;51.148;6.950;2023-06-22T13:41:58;4.25;;;3.80;;
65187;SDS011;51775;51.148;6.950;2023-06-22T13:44:24;4.22;;;3.60;;
65187;SDS011;51775;51.148;6.950;2023-06-22T13:46:49;3.80;;;3.33;;
65187;SDS011;51775;51.148;6.950;2023-06-22T13:49:14;4.20;;;3.60;;
65187;SDS011;51775;51.148;6.950;2023-06-22T13:51:40;4.68;;;3.88;;
65187;SDS011;51775;51.148;6.950;2023-06-22T13:54:05;4.65;;;3.65;;
65187;SDS011;51775;51.148;6.950;2023-06-22T13:56:30;5.00;;;3.72;;
65187;SDS011;51775;51.148;6.950;2023-06-22T13:58:57;4.20;;;3.70;;
65187;SDS011;51775;51.148;6.950;2023-06-22T14:01:22;4.17;;;3.50;;
65187;SDS011;51775;51.148;6.950;2023-06-22T14:03:47;4.43;;;3.70;;
65187;SDS011;51775;51.148;6.950;2023-06-22T14:06:13;4.68;;;3.80;;
65187;SDS011;51775;51.148;6.950;2023-06-22T14:08:38;4.00;;;3.40;;
65187;SDS011;51775;51.148;6.950;2023-06-22T14:11:03;4.25;;;3.40;;
65187;SDS011;51775;51.148;6.950;2023-06-22T14:13:29;6.30;;;3.80;;
65187;SDS011;51775;51.148;6.950;2023-06-22T14:15:54;4.43;;;3.50;;
65187;SDS011;51775;51.148;6.950;2023-06-22T14:18:19;4.50;;;3.60;;
65187;SDS011;51775;51.148;6.950;2023-06-22T14:20:45;4.80;;;3.80;;
65187;SDS011;51775;51.148;6.950;2023-06-22T14:23:10;4.22;;;3.50;;
65187;SDS011;51775;51.148;6.950;2023-06-22T14:25:35;4.40;;;3.72;;
65187;SDS011;51775;51.148;6.950;2023-06-22T14:28:01;4.20;;;3.60;;
65187;SDS011;51775;51.148;6.950;2023-06-22T14:30:26;4.30;;;3.42;;
65187;SDS011;51775;51.148;6.950;2023-06-22T14:32:51;4.20;;;3.40;;
65187;SDS011;51775;51.148;6.950;2023-06-22T14:35:16;3.97;;;3.20;;
65187;SDS011;51775;51.148;6.950;2023-06-22T14:37:42;4.20;;;3.60;;
65187;SDS011;51775;51.148;6.950;2023-06-22T14:40:07;4.70;;;3.80;;
65187;SDS011;51775;51.148;6.950;2023-06-22T14:42:33;3.63;;;3.25;;
65187;SDS011;51775;51.148;6.950;2023-06-22T14:44:58;4.30;;;3.42;;
65187;SDS011;51775;51.148;6.950;2023-06-22T14:47:23;4.57;;;3.50;;
65187;SDS011;51775;51.148;6.950;2023-06-22T14:49:49;4.50;;;3.50;;